• Join FlightAware (Why Join?)
  • Login
  • US Flag 
02:37AM EDT


 

Airport Tracker/Info


-or-


 

Live Flight TrackerFlight Track Log ✈ GJS3707 ✈ 29-May-2013 ✈ KBOI - KORD

Flight Track Log - Related Links

Times and Time Zones

All times are in EDT time to prevent confusion due to time zone crossing. See the GJS3707 flight status page for this flight to view local times or setup timezone preferences in your user account.

Time Position Orientation Groundspeed Altitude Reporting Facility
EDT Latitude Longitude Course Direction KTS MPH feet Rate Location/Type
03:43PM 43.5889 -116.2986 309° West 195 224 4,800  Level Salt Lake Center
03:44PM 43.6253 -116.3603 309° West 224 258 7,100 2,100 Climbing Salt Lake Center
03:45PM 43.6789 -116.3019 38° Northeast 269 310 9,200 1,920 Climbing Salt Lake Center
03:46PM 43.6844 -116.1728 87° East 304 350 11,100 1,440 Climbing Salt Lake Center
03:47PM 43.6997 -116.0456 81° East 349 402 12,200 1,020 Climbing Salt Lake Center
03:48PM 43.7153 -115.9064 81° East 378 435 13,300 1,200 Climbing Salt Lake Center
03:49PM 43.7308 -115.7383 83° East 399 459 14,700 1,080 Climbing Salt Lake Center
03:50PM 43.7469 -115.5914 81° East 405 466 15,600 1,380 Climbing Salt Lake Center
03:51PM 43.7675 -115.4153 81° East 416 479 17,600 1,620 Climbing Salt Lake Center
03:52PM 43.7844 -115.2625 81° East 422 486 19,000 1,500 Climbing Salt Lake Center
03:53PM 43.8056 -115.0797 81° East 431 496 20,700 1,380 Climbing Salt Lake Center
03:54PM 43.8231 -114.9236 81° East 432 497 21,900 960 Climbing Salt Lake Center
03:55PM 43.8400 -114.7636 82° East 439 505 22,800 960 Climbing Salt Lake Center
03:56PM 43.8600 -114.5739 82° East 446 513 23,900 1,020 Climbing Salt Lake Center
03:57PM 43.8781 -114.4078 81° East 454 522 24,900 1,020 Climbing Salt Lake Center
03:58PM 43.8989 -114.2158 81° East 453 521 26,000 1,020 Climbing Salt Lake Center
03:59PM 43.9167 -114.0503 81° East 453 521 27,000 960 Climbing Salt Lake Center
04:00PM 43.9342 -113.8783 82° East 450 518 28,000 1,020 Climbing Salt Lake Center
04:01PM 43.9536 -113.6864 82° East 450 518 29,100 960 Climbing Salt Lake Center
04:02PM 43.9675 -113.5239 83° East 446 513 30,000 840 Climbing Salt Lake Center
04:03PM 43.9853 -113.3317 83° East 448 516 30,900 780 Climbing Salt Lake Center
04:04PM 44.0022 -113.1681 82° East 448 516 31,700 660 Climbing Salt Lake Center
04:05PM 44.0175 -113.0044 83° East 448 516 32,300 600 Climbing Salt Lake Center
04:06PM 44.0358 -112.8117 82° East 452 520 33,000 600 Climbing Salt Lake Center
04:08PM 44.0519 -112.6444 82° East 455 524 33,600 600 Climbing Salt Lake Center
04:09PM 44.0683 -112.4489 83° East 458 527 34,300 600 Climbing Salt Lake Center
04:10PM 44.0806 -112.2783 84° East 462 532 34,900 300 Climbing Salt Lake Center
04:11PM 44.0892 -112.0803 86° East 462 532 35,000  Climbing Salt Lake Center
04:12PM 44.0914 -111.9061 89° East 472 543 35,000  Level Salt Lake Center
04:13PM 44.0922 -111.7261 90° East 484 557 35,000  Level Salt Lake Center
04:14PM 44.0931 -111.5142 90° East 492 566 35,000  Level Salt Lake Center
04:15PM 44.0936 -111.3353 90° East 491 565 35,000  Level Salt Lake Center
04:16PM 44.0944 -111.1289 90° East 484 557 35,000  Level Salt Lake Center
04:17PM 44.0942 -110.9506 90° East 485 558 35,000  Level Salt Lake Center
04:18PM 44.0936 -110.7417 90° East 486 559 35,000  Level Salt Lake Center
04:19PM 44.0925 -110.5650 90° East 481 554 35,000  Level Salt Lake Center
04:20PM 44.0931 -110.3597 90° East 477 549 35,000  Level Salt Lake Center
04:21PM 44.0917 -110.1872 91° East 471 542 35,000  Level Salt Lake Center
04:22PM 44.0894 -110.0147 91° East 470 541 35,000  Level Salt Lake Center
04:23PM 44.0864 -109.8100 91° East 472 543 35,000  Level Salt Lake Center
04:24PM 44.0853 -109.6350 90° East 473 544 35,000  Level Salt Lake Center
04:25PM 44.0819 -109.4256 91° East 473 544 35,000  Level Salt Lake Center
04:26PM 44.0794 -109.2506 91° East 475 547 35,000  Level Salt Lake Center
04:27PM 44.0767 -109.0764 91° East 474 545 35,000  Level Salt Lake Center
04:28PM 44.0731 -108.8758 91° East 467 537 35,000  Level Salt Lake Center
04:29PM 44.0694 -108.7036 92° East 467 537 35,000  Level Salt Lake Center
04:30PM 44.0642 -108.5047 92° East 464 534 35,000  Level Salt Lake Center
04:31PM 44.0603 -108.3339 92° East 465 535 35,000  Level Salt Lake Center
04:32PM 44.0553 -108.1353 92° East 463 533 35,000  Level Salt Lake Center
04:33PM 44.0517 -107.9664 92° East 460 529 35,000  Level Salt Lake Center
04:34PM 44.0464 -107.7997 92° East 454 522 35,000  Level Salt Lake Center
04:35PM 44.0406 -107.6039 92° East 456 525 35,000  Level Salt Lake Center
04:36PM 44.0361 -107.4356 92° East 458 527 35,000  Level Salt Lake Center
04:37PM 44.0289 -107.2389 93° East 457 526 35,000  Level Salt Lake Center
04:38PM 44.0228 -107.0714 93° East 457 526 35,000  Level Salt Lake Center
04:39PM 44.0194 -106.9619 92° East 453 521 35,000  Level Denver Center
04:40PM 44.0136 -106.7964 93° East 450 518 35,000  Level Denver Center
04:40PM 44.0092 -106.7117 94° East 452 520 35,000  Level Salt Lake Center
04:41PM 44.0028 -106.5431 93° East 456 525 35,000  Level Salt Lake Center
04:42PM 43.9997 -106.4317 92° East 457 526 35,000  Level Denver Center
04:42PM 43.9978 -106.3453 92° East 459 528 35,000  Level Salt Lake Center
04:43PM 44.0017 -106.1764 88° East 459 528 35,000  Level Salt Lake Center
04:44PM 44.0036 -106.0589 89° East 467 537 35,000  Level Denver Center
04:45PM 44.0044 -105.8872 90° East 465 535 35,000  Level Denver Center
04:46PM 44.0036 -105.6886 90° East 462 532 35,000  Level Denver Center
04:47PM 44.0039 -105.5156 90° East 466 536 35,000  Level Denver Center
04:48PM 44.0044 -105.3428 90° East 466 536 35,000  Level Denver Center
04:49PM 44.0039 -105.1400 90° East 470 541 35,000  Level Denver Center
04:50PM 44.0019 -104.9686 91° East 466 536 35,000  Level Denver Center
04:51PM 44.0019 -104.7667 90° East 467 537 35,000  Level Denver Center
04:52PM 44.0000 -104.6231 91° East 467 537 35,000  Level Denver Center
04:53PM 43.9986 -104.4236 90° East 462 532 35,000 -60 Level Denver Center
04:54PM 43.9961 -104.2319 91° East 445 512 34,900  Descending Denver Center
04:55PM 43.9933 -104.0942 92° East 447 514 35,000  Climbing Denver Center
04:56PM 43.9914 -103.8672 91° East 462 532 35,000  Level Denver Center
04:57PM 43.9886 -103.6911 91° East 475 547 35,000  Level Denver Center
04:58PM 43.9861 -103.5147 91° East 477 549 35,000  Level Denver Center
04:59PM 43.9833 -103.3125 91° East 470 541 35,000  Level Denver Center
05:00PM 43.9808 -103.1417 91° East 465 535 35,000  Level Denver Center
05:01PM 43.9800 -102.9386 90° East 470 541 35,000  Level Denver Center
05:02PM 43.9808 -102.7756 90° East 467 537 35,000  Level Denver Center
05:03PM 43.9806 -102.5986 90° East 464 534 35,000  Level Denver Center
05:04PM 43.9781 -102.4203 91° East 464 534 35,000  Level Denver Center
05:05PM 43.9828 -102.2064 88° East 467 537 35,000  Level Denver Center
05:07PM 44.0342 -102.0314 68° East 491 565 35,000  Level Denver Center
05:08PM 44.1428 -101.8517 50° Northeast 503 579 35,000  Level Denver Center
05:09PM 44.2308 -101.7006 51° Northeast 502 578 35,000  Level Denver Center
05:10PM 44.3181 -101.5478 51° Northeast 503 579 35,000  Level Denver Center
05:10PM 44.3542 -101.4878 50° Northeast 504 580 35,000  Level Minneapolis Center
05:11PM 44.4583 -101.3022 52° Northeast 505 581 35,000  Level Minneapolis Center
05:12PM 44.5447 -101.1453 52° Northeast 507 583 35,000  Level Minneapolis Center
05:13PM 44.6317 -100.9886 52° Northeast 508 585 35,000  Level Minneapolis Center
05:14PM 44.7186 -100.8325 52° Northeast 508 585 35,000  Level Minneapolis Center
05:15PM 44.8047 -100.6753 52° Northeast 507 583 35,000  Level Minneapolis Center
05:16PM 44.8897 -100.5189 52° Northeast 505 581 35,000  Level Minneapolis Center
05:17PM 44.9753 -100.3622 52° Northeast 502 578 35,000  Level Minneapolis Center
05:19PM 45.0764 -100.1747 53° Northeast 497 572 35,000  Level Minneapolis Center
05:20PM 45.1636 -100.0122 53° Northeast 499 574 35,000  Level Minneapolis Center
05:21PM 45.2669 -99.8175 53° Northeast 505 581 35,000  Level Minneapolis Center
05:22PM 45.3492 -99.6594 53° Northeast 499 574 35,000  Level Minneapolis Center
05:23PM 45.4322 -99.5031 53° Northeast 495 570 35,000  Level Minneapolis Center
05:24PM 45.5147 -99.3461 53° Northeast 495 570 35,000  Level Minneapolis Center
05:25PM 45.5969 -99.1878 53° Northeast 496 571 35,000  Level Minneapolis Center
05:26PM 45.6783 -99.0294 54° Northeast 496 571 35,000  Level Minneapolis Center
05:27PM 45.7619 -98.8681 53° Northeast 501 577 35,000  Level Minneapolis Center
05:28PM 45.8603 -98.6747 54° Northeast 501 577 35,000  Level Minneapolis Center
05:29PM 45.9419 -98.5117 54° Northeast 503 579 35,000  Level Minneapolis Center
05:30PM 46.0242 -98.3481 54° Northeast 504 580 35,000  Level Minneapolis Center
05:31PM 46.0831 -98.1692 65° Northeast 494 568 35,100 -60 Climbing Minneapolis Center
05:32PM 46.1447 -97.9722 66° East 497 572 34,900 -60 Descending Minneapolis Center
05:33PM 46.2058 -97.8006 63° Northeast 487 560 35,000  Climbing Minneapolis Center
05:34PM 46.2442 -97.6219 73° East 476 548 34,900  Descending Minneapolis Center
05:35PM 46.2672 -97.4364 80° East 471 542 35,000  Climbing Minneapolis Center
05:36PM 46.2906 -97.2517 80° East 470 541 35,000  Level Minneapolis Center
05:37PM 46.3178 -97.0286 80° East 474 545 35,000  Level Minneapolis Center
05:38PM 46.3400 -96.8422 80° East 471 542 35,000  Level Minneapolis Center
05:39PM 46.3639 -96.6475 80° East 485 558 35,000  Level Minneapolis Center
05:40PM 46.3858 -96.4492 81° East 498 573 35,000  Level Minneapolis Center
05:41PM 46.4089 -96.2500 80° East 503 579 35,000  Level Minneapolis Center
05:42PM 46.4325 -96.0519 80° East 502 578 35,000  Level Minneapolis Center
05:44PM 46.4594 -95.8169 80° East 496 571 35,000  Level Minneapolis Center
05:45PM 46.4806 -95.6189 81° East 499 574 35,000  Level Minneapolis Center
05:46PM 46.5047 -95.4067 81° East 499 574 35,000  Level Minneapolis Center
05:47PM 46.5264 -95.2089 81° East 500 575 35,000  Level Minneapolis Center
05:48PM 46.5464 -95.0111 82° East 497 572 35,000  Level Minneapolis Center
05:49PM 46.5669 -94.8133 81° East 497 572 35,000  Level Minneapolis Center
05:50PM 46.5867 -94.6150 82° East 498 573 35,000  Level Minneapolis Center
05:51PM 46.6067 -94.4150 82° East 501 577 35,000  Level Minneapolis Center
05:52PM 46.6286 -94.1761 82° East 500 575 35,000  Level Minneapolis Center
05:53PM 46.6489 -93.9781 81° East 500 575 35,000  Level Minneapolis Center
05:54PM 46.6681 -93.7797 82° East 498 573 35,000  Level Minneapolis Center
05:55PM 46.6856 -93.5819 83° East 497 572 35,000  Level Minneapolis Center
05:56PM 46.7033 -93.3822 83° East 501 577 35,000  Level Minneapolis Center
05:57PM 46.7242 -93.1406 83° East 505 581 35,000  Level Minneapolis Center
05:58PM 46.7414 -92.9328 83° East 516 594 35,000  Level Minneapolis Center
05:59PM 46.7586 -92.7269 83° East 517 595 35,000  Level Minneapolis Center
06:00PM 46.7758 -92.5222 83° East 515 593 35,000  Level Minneapolis Center
06:01PM 46.7775 -92.3156 89° East 514 592 35,000  Level Minneapolis Center
06:02PM 46.7303 -92.1297 110° East 500 575 35,000  Level Minneapolis Center
06:03PM 46.6214 -91.9647 134° Southeast 480 552 35,000  Level Minneapolis Center
06:04PM 46.5028 -91.8972 159° South 462 532 35,000  Level Minneapolis Center
06:05PM 46.3853 -91.8256 157° South 457 526 35,000  Level Minneapolis Center
06:06PM 46.2697 -91.7461 155° Southeast 459 528 35,000  Level Minneapolis Center
06:07PM 46.1397 -91.6467 152° Southeast 458 527 35,000  Level Minneapolis Center
06:08PM 46.0239 -91.5547 151° Southeast 459 528 35,000  Level Minneapolis Center
06:09PM 45.9189 -91.4383 142° Southeast 486 559 35,000  Level Minneapolis Center
06:10PM 45.8269 -91.2978 133° Southeast 486 559 35,000  Level Minneapolis Center
06:11PM 45.7328 -91.1517 133° Southeast 497 572 35,000  Level Minneapolis Center
06:12PM 45.6436 -91.0078 132° Southeast 489 563 35,000  Level Minneapolis Center
06:13PM 45.5419 -90.8356 130° Southeast 479 551 35,000  Level Minneapolis Center
06:15PM 45.4583 -90.6897 129° Southeast 479 551 35,000  Level Minneapolis Center
06:16PM 45.3725 -90.5447 130° Southeast 481 554 35,000  Level Minneapolis Center
06:17PM 45.2825 -90.4064 133° Southeast 481 554 35,000  Level Minneapolis Center
06:18PM 45.1647 -90.3292 155° Southeast 467 537 35,000  Level Minneapolis Center
06:19PM 45.0442 -90.2689 161° South 464 534 35,000 -180 Level Minneapolis Center
06:20PM 44.8978 -90.1964 161° South 465 535 34,700 -720 Descending Minneapolis Center
06:21PM 44.7731 -90.1322 160° South 463 533 33,600 -1,020 Descending Minneapolis Center
06:22PM 44.6547 -90.0744 161° South 453 521 32,600 -1,020 Descending Minneapolis Center
06:23PM 44.5364 -90.0161 161° South 451 519 31,600 -780 Descending Minneapolis Center
06:24PM 44.4122 -89.9539 160° South 468 539 31,000 -300 Descending Minneapolis Center
06:25PM 44.2925 -89.8944 160° South 460 529 31,000 -360 Level Minneapolis Center
06:26PM 44.1536 -89.8269 161° South 454 522 30,300 -1,020 Descending Minneapolis Center
06:27PM 44.0739 -89.7883 161° South 456 525 29,300 -1,440 Descending Chicago Center
06:28PM 43.9533 -89.7303 161° South 459 528 27,800 -1,500 Descending Chicago Center
06:29PM 43.8392 -89.6739 160° South 442 509 26,300 -1,500 Descending Chicago Center
06:30PM 43.7278 -89.6186 160° South 429 494 24,800 -1,620 Descending Chicago Center
06:31PM 43.5953 -89.5572 161° South 430 495 23,000 -1,620 Descending Chicago Center
06:32PM 43.4872 -89.5031 160° South 419 482 21,500 -1,620 Descending Chicago Center
06:33PM 43.3833 -89.4544 161° South 404 465 19,700 -1,740 Descending Chicago Center
06:34PM 43.2875 -89.4089 161° South 378 435 18,000 -1,500 Descending Chicago Center
06:35PM 43.1931 -89.3631 161° South 365 420 16,600 -1,500 Descending Chicago Center
06:36PM 43.0814 -89.3142 162° South 363 418 15,000 -1,440 Descending Chicago Center
06:37PM 42.9842 -89.2769 164° South 364 419 13,700 -1,020 Descending Chicago Center
06:38PM 42.8917 -89.2389 163° South 352 405 12,900 -420 Descending Chicago Center
06:39PM 42.7981 -89.2019 164° South 351 404 12,900 -420 Level Chicago Center
06:40PM 42.7056 -89.1642 163° South 348 400 12,100 -960 Descending Chicago Center
06:41PM 42.6008 -89.1231 164° South 337 388 11,000 -600 Descending Chicago Center
06:42PM 42.5347 -89.0311 134° Southeast 360 414 10,900 -60 Descending Chicago Center
06:43PM 42.4967 -88.9019 112° Southeast 368 423 10,900 -360 Level Chicago Center
06:44PM 42.4619 -88.7892 113° Southeast 332 382 10,200 -840 Descending Chicago Center
06:45PM 42.4322 -88.6897 112° Southeast 293 337 9,200 -660 Descending Chicago Center
06:46PM 42.3972 -88.5744 112° Southeast 285 328 8,900 -180 Descending Chicago Center
06:47PM 42.3622 -88.4758 116° Southeast 290 334 8,900 -300 Level Chicago Center
06:48PM 42.3197 -88.4025 128° Southeast 282 325 8,400 -960 Descending Chicago Center
06:49PM 42.2622 -88.3081 129° Southeast 274 315 7,000 -1,440 Descending Chicago Center
06:50PM 42.2167 -88.2272 127° Southeast 272 313 5,500 -1,020 Descending Chicago Center
06:51PM 42.1744 -88.1517 127° Southeast 261 300 5,000 -600 Descending Chicago Center
06:52PM 42.1319 -88.0908 133° Southeast 235 270 4,300 -1,140 Descending Chicago Center
06:53PM 42.0833 -88.0500 148° Southeast 197 227 2,900 -1,620 Descending Chicago TRACON